Time;durP1;ratioP1;P1;durP2;ratioP2;P2;SDS_P1;SDS_P2;PMS_P1;PMS_P2;Temp;Humidity;BMP_temperature;BMP_pressure;BME280_temperature;BME280_humidity;BME280_pressure;Samples;Min_cycle;Max_cycle;Signal;HPM_P1;HPM_P2
2023/11/12 00:02:16;;;;;;;;;;;;;;;19.89;65.43;100020.94;7396437;19;1673;-43
2023/11/12 00:04:48;;;;;;;;;;;;;;;19.85;65.51;100037.34;7397709;19;1502;-43
2023/11/12 00:07:16;;;;;;;;;;;;;;;19.84;65.31;100016.06;7397291;19;1860;-43
2023/11/12 00:09:45;;;;;;;;;;;;;;;19.82;65.38;100026.94;7394668;19;1419;-43
2023/11/12 00:12:13;;;;;;;;;;;;;;;19.83;65.56;100015.19;7398213;19;1478;-43
2023/11/12 00:14:45;;;;;;;;;;;;;;;19.85;65.40;100029.28;7397231;19;1431;-43
2023/11/12 00:17:13;;;;;;;;;;;;;;;19.85;65.41;100050.75;7397180;19;1479;-43
2023/11/12 00:19:42;;;;;;;;;;;;;;;19.85;65.74;100029.28;7394350;19;1567;-43
2023/11/12 00:22:13;;;;;;;;;;;;;;;19.85;65.54;100045.38;7397185;19;1145;-43
2023/11/12 00:24:41;;;;;;;;;;;;;;;19.83;65.11;100042.00;7396365;19;1829;-43
2023/11/12 00:27:10;;;;;;;;;;;;;;;19.82;65.38;100034.16;7395489;19;1852;-43
2023/11/12 00:29:39;;;;;;;;;;;;;;;19.81;65.58;100037.81;7396572;19;1315;-43
2023/11/12 00:32:08;;;;;;;;;;;;;;;19.82;65.50;100048.41;7397419;19;1625;-43
2023/11/12 00:34:38;;;;;;;;;;;;;;;19.85;65.46;100039.19;7398231;19;1579;-43
2023/11/12 00:37:07;;;;;;;;;;;;;;;19.86;65.41;100062.34;7397333;19;1502;-43
2023/11/12 00:39:38;;;;;;;;;;;;;;;19.84;65.57;100038.34;7397991;19;1405;-43
2023/11/12 00:42:07;;;;;;;;;;;;;;;19.82;65.58;100058.31;7397859;19;1402;-43
2023/11/12 00:44:35;;;;;;;;;;;;;;;19.81;65.57;100056.59;7396863;19;1765;-43
2023/11/12 00:47:04;;;;;;;;;;;;;;;19.79;65.62;100054.06;7396436;19;1927;-43
2023/11/12 00:49:32;;;;;;;;;;;;;;;19.79;65.60;100059.44;7395191;19;1592;-43
2023/11/12 00:52:00;;;;;;;;;;;;;;;19.78;65.62;100062.31;7396357;19;1492;-43
2023/11/12 00:54:30;;;;;;;;;;;;;;;19.79;65.18;100086.25;7388702;19;1563;-44
2023/11/12 00:57:01;;;;;;;;;;;;;;;19.78;65.58;100065.81;7389350;19;1399;-43
2023/11/12 00:59:29;;;;;;;;;;;;;;;19.77;65.48;100056.06;7394712;19;1441;-43
2023/11/12 01:01:57;;;;;;;;;;;;;;;19.77;65.49;100053.38;7395079;19;1462;-43
2023/11/12 01:04:26;;;;;;;;;;;;;;;19.80;65.45;100052.25;7395070;19;1455;-43
2023/11/12 01:06:55;;;;;;;;;;;;;;;19.79;65.42;100062.13;7395617;19;1849;-43
2023/11/12 01:09:23;;;;;;;;;;;;;;;19.79;65.35;100067.47;7395127;19;1691;-43
2023/11/12 01:11:52;;;;;;;;;;;;;;;19.78;65.36;100081.91;7394881;19;1609;-43
2023/11/12 01:14:23;;;;;;;;;;;;;;;19.77;65.54;100069.47;7393638;19;1626;-43
2023/11/12 01:16:52;;;;;;;;;;;;;;;19.75;65.53;100066.13;7394687;19;1569;-43
2023/11/12 01:19:20;;;;;;;;;;;;;;;19.74;65.23;100048.34;7393993;19;1555;-43
2023/11/12 01:21:48;;;;;;;;;;;;;;;19.77;65.23;100060.59;7395495;19;1605;-43
2023/11/12 01:24:17;;;;;;;;;;;;;;;19.76;65.63;100066.97;7394275;19;1558;-43
2023/11/12 01:26:45;;;;;;;;;;;;;;;19.79;65.52;100072.84;7393620;19;1873;-48
2023/11/12 01:29:14;;;;;;;;;;;;;;;19.75;65.46;100060.75;7393764;19;1390;-43
2023/11/12 01:31:45;;;;;;;;;;;;;;;19.74;65.33;100066.28;7393285;19;1500;-43
2023/11/12 01:34:14;;;;;;;;;;;;;;;19.76;65.49;100073.19;7393909;19;1360;-43
2023/11/12 01:36:42;;;;;;;;;;;;;;;19.75;65.28;100062.59;7394980;19;1259;-43
2023/11/12 01:39:12;;;;;;;;;;;;;;;19.78;65.34;100064.97;7394289;19;1717;-43
2023/11/12 01:41:40;;;;;;;;;;;;;;;19.74;65.20;100056.41;7393452;19;1748;-43
2023/11/12 01:44:09;;;;;;;;;;;;;;;19.77;65.23;100074.84;7394139;19;1395;-43
2023/11/12 01:46:37;;;;;;;;;;;;;;;19.77;65.16;100066.78;7393296;19;1846;-43
2023/11/12 01:49:08;;;;;;;;;;;;;;;19.72;65.19;100055.72;7393438;19;1424;-43
2023/11/12 01:51:39;;;;;;;;;;;;;;;19.74;65.35;100075.19;7393128;19;1478;-43
2023/11/12 01:54:08;;;;;;;;;;;;;;;19.73;65.51;100073.47;7393696;19;1436;-43
2023/11/12 01:56:37;;;;;;;;;;;;;;;19.75;65.87;100079.53;7375896;19;1526;-43
2023/11/12 01:59:06;;;;;;;;;;;;;;;19.74;65.83;100093.13;7392796;19;1448;-43
2023/11/12 02:01:34;;;;;;;;;;;;;;;19.72;65.82;100087.91;7392098;19;1474;-43
2023/11/12 02:04:03;;;;;;;;;;;;;;;19.72;65.66;100076.34;7393998;19;1425;-43
2023/11/12 02:06:34;;;;;;;;;;;;;;;19.70;65.54;100081.81;7394387;19;1019;-43
2023/11/12 02:09:03;;;;;;;;;;;;;;;19.70;65.68;100079.16;7393143;19;1857;-43
2023/11/12 02:11:32;;;;;;;;;;;;;;;19.69;65.57;100088.16;7392498;19;1898;-43
2023/11/12 02:14:01;;;;;;;;;;;;;;;19.74;65.51;100093.13;7390622;19;1846;-43
2023/11/12 02:16:29;;;;;;;;;;;;;;;19.72;65.64;100097.81;7390136;19;1708;-43
2023/11/12 02:18:58;;;;;;;;;;;;;;;19.70;65.56;100089.88;7392493;19;1451;-43
2023/11/12 02:21:26;;;;;;;;;;;;;;;19.71;65.39;100094.25;7391494;19;1668;-43
2023/11/12 02:23:57;;;;;;;;;;;;;;;20.10;64.75;100101.06;7394165;19;1303;-43
2023/11/12 02:26:26;;;;;;;;;;;;;;;20.65;63.03;100089.91;7393439;19;1554;-43
2023/11/12 02:28:54;;;;;;;;;;;;;;;21.36;61.17;100076.94;7390720;19;2451;-43
2023/11/12 02:31:23;;;;;;;;;;;;;;;21.96;59.53;100091.91;7390890;19;1543;-43
2023/11/12 02:33:51;;;;;;;;;;;;;;;22.15;59.21;100069.97;7393103;19;1576;-43
2023/11/12 02:36:25;;;;;;;;;;;;;;;22.38;58.40;100069.25;7391981;19;1324;-43
2023/11/12 02:38:53;;;;;;;;;;;;;;;22.44;58.36;100057.75;7391109;19;1462;-43
2023/11/12 02:41:24;;;;;;;;;;;;;;;22.46;57.93;100069.19;7390465;19;1829;-43
2023/11/12 02:43:52;;;;;;;;;;;;;;;22.43;58.27;100058.78;7391004;19;1565;-43
2023/11/12 02:46:20;;;;;;;;;;;;;;;22.38;58.22;100067.41;7391781;19;1626;-43
2023/11/12 02:49:02;;;;;;;;;;;;;;;22.46;58.30;100071.06;7389937;19;1859;-43
2023/11/12 02:51:30;;;;;;;;;;;;;;;22.44;58.18;100072.09;7390217;19;1440;-43
2023/11/12 02:53:59;;;;;;;;;;;;;;;22.52;58.18;100078.44;7390184;19;1600;-43
2023/11/12 02:56:30;;;;;;;;;;;;;;;22.51;58.18;100066.84;7375574;19;1575;-43
2023/11/12 02:58:59;;;;;;;;;;;;;;;22.54;58.04;100063.81;7390807;19;1491;-43
2023/11/12 03:01:27;;;;;;;;;;;;;;;22.56;57.96;100080.63;7388581;19;1586;-43
2023/11/12 03:03:55;;;;;;;;;;;;;;;22.63;57.76;100088.84;7391650;19;1467;-43
2023/11/12 03:06:24;;;;;;;;;;;;;;;22.68;57.72;100077.53;7389606;19;1303;-43
2023/11/12 03:08:53;;;;;;;;;;;;;;;22.62;57.90;100081.75;7386049;19;1854;-43
2023/11/12 03:11:22;;;;;;;;;;;;;;;22.68;57.85;100088.31;7386264;19;1431;-43
2023/11/12 03:13:53;;;;;;;;;;;;;;;22.71;58.09;100104.13;7391125;19;1517;-43
2023/11/12 03:16:23;;;;;;;;;;;;;;;22.79;57.58;100093.31;7391256;19;1561;-43
2023/11/12 03:18:51;;;;;;;;;;;;;;;22.81;57.43;100089.41;7391084;19;1558;-43
2023/11/12 03:21:19;;;;;;;;;;;;;;;22.86;57.44;100107.78;7391057;19;1393;-43
2023/11/12 03:23:48;;;;;;;;;;;;;;;22.86;57.33;100115.84;7390780;19;1478;-43
2023/11/12 03:26:16;;;;;;;;;;;;;;;22.86;57.43;100110.47;7391961;19;1916;-43
2023/11/12 03:28:44;;;;;;;;;;;;;;;22.91;57.36;100104.53;7388868;19;1857;-44
2023/11/12 03:31:15;;;;;;;;;;;;;;;22.94;57.17;100102.31;7391428;19;1840;-46
2023/11/12 03:33:44;;;;;;;;;;;;;;;22.95;57.03;100106.69;7387789;19;1573;-43
2023/11/12 03:36:15;;;;;;;;;;;;;;;22.98;57.11;100110.91;7389895;19;1519;-43
2023/11/12 03:38:43;;;;;;;;;;;;;;;23.02;57.32;100106.88;7390628;19;1410;-43
2023/11/12 03:41:13;;;;;;;;;;;;;;;22.89;57.12;100099.31;7390743;19;1566;-43
2023/11/12 03:43:42;;;;;;;;;;;;;;;22.74;57.55;100099.25;7391530;19;1466;-43
2023/11/12 03:46:11;;;;;;;;;;;;;;;22.60;57.84;100102.66;7396054;19;1521;-43
2023/11/12 03:48:41;;;;;;;;;;;;;;;22.60;58.03;100117.00;7395499;19;1838;-43
2023/11/12 03:51:10;;;;;;;;;;;;;;;22.61;58.05;100102.47;7397893;19;1593;-43
2023/11/12 03:53:38;;;;;;;;;;;;;;;22.49;58.40;100133.53;7397233;19;1453;-43
2023/11/12 03:56:07;;;;;;;;;;;;;;;22.35;58.51;100135.09;7383199;19;1557;-43
2023/11/12 03:58:35;;;;;;;;;;;;;;;21.92;59.44;100142.53;7397260;19;1603;-43
2023/11/12 04:01:04;;;;;;;;;;;;;;;21.62;60.23;100154.84;7395788;19;1686;-43
2023/11/12 04:03:32;;;;;;;;;;;;;;;21.37;60.81;100143.19;7398026;19;1269;-43
2023/11/12 04:06:03;;;;;;;;;;;;;;;21.31;60.99;100166.22;7394381;19;1990;-43
2023/11/12 04:08:31;;;;;;;;;;;;;;;21.24;61.28;100162.50;7395173;19;1834;-43
2023/11/12 04:11:00;;;;;;;;;;;;;;;21.16;60.93;100179.44;7395855;19;1835;-43
2023/11/12 04:13:28;;;;;;;;;;;;;;;21.14;61.39;100180.63;7394740;19;1742;-43
2023/11/12 04:15:56;;;;;;;;;;;;;;;21.10;61.54;100179.25;7397642;19;1622;-43
2023/11/12 04:18:25;;;;;;;;;;;;;;;21.06;61.25;100166.13;7397098;19;1518;-43
2023/11/12 04:20:53;;;;;;;;;;;;;;;20.97;61.15;100169.81;7398658;19;1017;-43
2023/11/12 04:23:24;;;;;;;;;;;;;;;20.90;61.45;100178.69;7397098;19;1718;-43
2023/11/12 04:25:52;;;;;;;;;;;;;;;20.86;61.25;100164.72;7396086;19;1955;-43
2023/11/12 04:28:25;;;;;;;;;;;;;;;20.80;61.66;100200.31;7394892;19;1861;-43
2023/11/12 04:30:54;;;;;;;;;;;;;;;20.76;61.79;100180.97;7396690;19;1574;-43
2023/11/12 04:33:22;;;;;;;;;;;;;;;20.73;61.55;100167.88;7396130;19;1664;-43
2023/11/12 04:35:52;;;;;;;;;;;;;;;20.80;61.99;100178.81;7395611;19;1567;-43
2023/11/12 04:38:20;;;;;;;;;;;;;;;20.85;61.81;100176.50;7396082;19;1450;-43
2023/11/12 04:40:51;;;;;;;;;;;;;;;20.81;61.88;100172.44;7395564;19;1360;-43
2023/11/12 04:43:20;;;;;;;;;;;;;;;20.86;61.78;100168.25;7395342;19;1502;-43
2023/11/12 04:45:48;;;;;;;;;;;;;;;20.80;61.98;100176.13;7396259;19;1526;-43
2023/11/12 04:48:17;;;;;;;;;;;;;;;20.69;61.70;100182.66;7395043;19;1844;-43
2023/11/12 04:50:46;;;;;;;;;;;;;;;20.60;62.36;100194.34;7395754;19;1523;-43
2023/11/12 04:53:12;;;;;;;;;;;;;;;20.50;62.44;100207.03;7394670;19;1511;-43
2023/11/12 04:55:40;;;;;;;;;;;;;;;20.46;62.90;100190.38;7389072;19;1574;-44
2023/11/12 04:58:11;;;;;;;;;;;;;;;20.42;62.88;100186.31;7390214;19;1514;-43
2023/11/12 05:00:41;;;;;;;;;;;;;;;20.42;62.83;100191.69;7395514;19;1408;-43
2023/11/12 05:03:09;;;;;;;;;;;;;;;20.41;62.92;100179.25;7395388;19;1451;-43
2023/11/12 05:05:38;;;;;;;;;;;;;;;20.36;62.77;100185.13;7393114;19;1534;-43
2023/11/12 05:08:06;;;;;;;;;;;;;;;20.36;63.10;100190.47;7393894;19;1868;-43
2023/11/12 05:10:35;;;;;;;;;;;;;;;20.34;62.79;100207.75;7395444;19;1507;-43
2023/11/12 05:13:03;;;;;;;;;;;;;;;20.42;62.98;100202.44;7392670;19;1623;-46
2023/11/12 05:15:34;;;;;;;;;;;;;;;20.36;63.01;100203.06;7393732;19;1383;-46
2023/11/12 05:18:05;;;;;;;;;;;;;;;20.36;62.95;100219.19;7389494;19;1138;-46
2023/11/12 05:20:35;;;;;;;;;;;;;;;20.41;62.70;100217.72;7389604;19;1518;-45
2023/11/12 05:23:03;;;;;;;;;;;;;;;20.42;62.76;100219.38;7390627;19;1474;-45
2023/11/12 05:25:32;;;;;;;;;;;;;;;20.35;62.98;100230.91;7388595;19;1475;-45
2023/11/12 05:28:00;;;;;;;;;;;;;;;20.32;62.92;100241.97;7386442;19;2509;-45
2023/11/12 05:30:29;;;;;;;;;;;;;;;20.41;62.70;100233.84;7389973;19;1549;-45
2023/11/12 05:33:00;;;;;;;;;;;;;;;20.43;62.44;100239.88;7389539;19;1503;-45
2023/11/12 05:35:28;;;;;;;;;;;;;;;20.53;62.12;100244.28;7390984;19;1558;-45
2023/11/12 05:37:57;;;;;;;;;;;;;;;20.52;62.04;100251.50;7392444;19;1690;-45
2023/11/12 05:40:25;;;;;;;;;;;;;;;20.63;61.85;100262.03;7392029;19;1389;-45
2023/11/12 05:42:53;;;;;;;;;;;;;;;20.64;61.45;100265.56;7392075;19;1586;-45
2023/11/12 05:45:21;;;;;;;;;;;;;;;20.66;61.44;100264.38;7392990;19;1582;-45
2023/11/12 05:47:50;;;;;;;;;;;;;;;20.71;61.64;100269.31;7392000;19;1479;-45
2023/11/12 05:50:23;;;;;;;;;;;;;;;20.68;61.56;100282.22;7328562;19;13001;-45
2023/11/12 05:52:51;;;;;;;;;;;;;;;20.69;61.67;100294.63;7389820;19;1622;-45
2023/11/12 05:55:19;;;;;;;;;;;;;;;20.70;61.89;100280.22;7390147;19;1550;-45
2023/11/12 05:57:47;;;;;;;;;;;;;;;20.66;61.87;100275.13;7377445;19;1614;-45
2023/11/12 06:00:17;;;;;;;;;;;;;;;20.69;61.96;100298.19;7390916;19;2300;-45
2023/11/12 06:02:45;;;;;;;;;;;;;;;20.64;61.88;100297.78;7392414;19;1543;-45
2023/11/12 06:05:13;;;;;;;;;;;;;;;20.51;61.70;100268.63;7390162;19;1588;-42
2023/11/12 06:07:45;;;;;;;;;;;;;;;20.73;59.38;100306.75;7384520;19;1660;-42
2023/11/12 06:10:13;;;;;;;;;;;;;;;20.61;53.05;100304.34;7387525;19;1863;-43
2023/11/12 06:12:42;;;;;;;;;;;;;;;21.09;57.78;100306.59;7391405;19;1208;-42
2023/11/12 06:15:11;;;;;;;;;;;;;;;21.53;57.49;100290.38;7391528;19;1597;-42
2023/11/12 06:17:39;;;;;;;;;;;;;;;21.38;56.73;100300.88;7390770;19;1435;-42
2023/11/12 06:20:08;;;;;;;;;;;;;;;21.19;57.87;100313.56;7389731;19;1987;-42
2023/11/12 06:22:37;;;;;;;;;;;;;;;21.10;58.09;100321.75;7390570;19;1466;-43
2023/11/12 06:25:11;;;;;;;;;;;;;;;20.97;58.43;100333.78;7390459;19;1492;-42
2023/11/12 06:27:39;;;;;;;;;;;;;;;20.90;59.14;100334.56;7391831;19;1841;-42
2023/11/12 06:30:09;;;;;;;;;;;;;;;21.26;58.23;100329.91;7389643;19;1864;-42
2023/11/12 06:32:38;;;;;;;;;;;;;;;21.43;57.28;100337.06;7391753;19;1494;-42
2023/11/12 06:35:06;;;;;;;;;;;;;;;21.22;57.67;100323.16;7390053;19;1776;-42
2023/11/12 06:37:35;;;;;;;;;;;;;;;21.09;57.90;100363.06;7391442;19;1566;-42
2023/11/12 06:40:03;;;;;;;;;;;;;;;21.01;58.16;100343.22;7392186;19;1504;-42
2023/11/12 06:42:34;;;;;;;;;;;;;;;20.91;58.11;100363.13;7391414;19;1515;-42
2023/11/12 06:45:02;;;;;;;;;;;;;;;20.94;58.30;100360.97;7393116;19;1678;-42
2023/11/12 06:47:32;;;;;;;;;;;;;;;21.22;57.89;100360.81;7393417;19;1976;-42
2023/11/12 06:50:00;;;;;;;;;;;;;;;21.26;57.36;100351.41;7389977;19;1861;-42
2023/11/12 06:52:29;;;;;;;;;;;;;;;21.04;58.02;100367.06;7391606;19;1608;-42
2023/11/12 06:54:59;;;;;;;;;;;;;;;20.88;58.57;100353.53;7392708;19;1463;-42
2023/11/12 06:57:27;;;;;;;;;;;;;;;20.84;58.71;100384.41;7377550;19;1621;-42
2023/11/12 06:59:58;;;;;;;;;;;;;;;20.84;58.61;100368.31;7392944;19;1898;-46
2023/11/12 07:02:27;;;;;;;;;;;;;;;20.97;58.35;100379.47;7391112;19;1682;-42
2023/11/12 07:04:55;;;;;;;;;;;;;;;21.34;57.50;100362.19;7390229;19;1553;-42
2023/11/12 07:07:23;;;;;;;;;;;;;;;21.25;57.62;100384.69;7387575;19;1443;-42
2023/11/12 07:09:52;;;;;;;;;;;;;;;20.98;58.27;100378.47;7385257;19;1881;-42
2023/11/12 07:12:20;;;;;;;;;;;;;;;20.89;58.76;100387.50;7386982;19;1560;-42
2023/11/12 07:14:48;;;;;;;;;;;;;;;20.79;58.06;100394.78;7389959;19;1447;-42
2023/11/12 07:17:19;;;;;;;;;;;;;;;20.56;55.74;100384.50;7385353;19;1419;-42
2023/11/12 07:19:48;;;;;;;;;;;;;;;20.52;56.82;100401.94;6372162;19;10000690;-42
2023/11/12 07:22:16;;;;;;;;;;;;;;;20.97;53.65;100398.31;7396582;19;1582;-42
2023/11/12 07:24:44;;;;;;;;;;;;;;;21.26;53.04;100414.09;7392505;19;1363;-42
2023/11/12 07:27:13;;;;;;;;;;;;;;;21.17;53.78;100400.75;7394274;19;1699;-43
2023/11/12 07:29:41;;;;;;;;;;;;;;;21.04;54.25;100418.16;7395322;19;1855;-42
2023/11/12 07:32:09;;;;;;;;;;;;;;;20.80;52.86;100393.81;7397193;19;1557;-41
2023/11/12 07:34:40;;;;;;;;;;;;;;;20.76;53.99;100409.38;7396042;19;1574;-42
2023/11/12 07:37:09;;;;;;;;;;;;;;;20.80;54.17;100407.25;7397575;19;1465;-42
2023/11/12 07:39:37;;;;;;;;;;;;;;;20.78;54.36;100417.31;7396049;19;1084;-42
2023/11/12 07:42:06;;;;;;;;;;;;;;;21.10;54.52;100407.78;7397811;19;1550;-43
2023/11/12 07:44:34;;;;;;;;;;;;;;;21.58;53.68;100409.09;7398850;19;1432;-42
2023/11/12 07:47:04;;;;;;;;;;;;;;;21.49;53.37;100427.06;7396340;19;1504;-42
2023/11/12 07:49:32;;;;;;;;;;;;;;;21.34;54.77;100423.22;7396028;19;1850;-42
2023/11/12 07:52:03;;;;;;;;;;;;;;;21.30;55.46;100425.38;7398194;19;1645;-42
2023/11/12 07:54:32;;;;;;;;;;;;;;;21.13;56.51;100432.53;7397547;19;1446;-42
2023/11/12 07:57:00;;;;;;;;;;;;;;;21.05;56.56;100419.84;7381056;19;1528;-42
2023/11/12 07:59:29;;;;;;;;;;;;;;;21.05;57.16;100421.72;7398946;19;1505;-42
2023/11/12 08:01:57;;;;;;;;;;;;;;;21.16;57.29;100451.00;7398334;19;1557;-42
2023/11/12 08:04:25;;;;;;;;;;;;;;;21.13;57.61;100447.78;7396759;19;1532;-42
2023/11/12 08:06:53;;;;;;;;;;;;;;;21.13;57.58;100445.09;7396944;19;1431;-42
2023/11/12 08:09:24;;;;;;;;;;;;;;;21.04;57.79;100450.41;7395590;19;1834;-42
2023/11/12 08:11:53;;;;;;;;;;;;;;;20.87;52.55;100448.63;7395986;19;1569;-42
2023/11/12 08:14:21;;;;;;;;;;;;;;;20.86;56.17;100468.44;7396295;19;1499;-42
2023/11/12 08:16:49;;;;;;;;;;;;;;;20.80;53.33;100463.66;7394068;19;1581;-42
2023/11/12 08:19:18;;;;;;;;;;;;;;;21.25;53.55;100460.00;7391795;19;1675;-42
2023/11/12 08:21:46;;;;;;;;;;;;;;;21.33;52.70;100453.81;7393365;19;1596;-42
2023/11/12 08:24:14;;;;;;;;;;;;;;;21.16;53.31;100450.19;7393802;19;1411;-42
2023/11/12 08:26:45;;;;;;;;;;;;;;;21.03;54.05;100462.19;7394745;19;1632;-41
2023/11/12 08:29:14;;;;;;;;;;;;;;;20.94;54.63;100460.44;7393703;19;1854;-41
2023/11/12 08:31:42;;;;;;;;;;;;;;;20.90;55.05;100467.13;7394502;19;1799;-42
2023/11/12 08:34:10;;;;;;;;;;;;;;;20.85;54.95;100472.13;7393558;19;1586;-42
2023/11/12 08:36:39;;;;;;;;;;;;;;;20.98;55.07;100477.94;7393481;19;1836;-42
2023/11/12 08:39:09;;;;;;;;;;;;;;;21.33;54.67;100484.25;7393537;19;1607;-41
2023/11/12 08:41:37;;;;;;;;;;;;;;;21.25;54.92;100484.19;7390605;19;1907;-41
2023/11/12 08:44:09;;;;;;;;;;;;;;;21.04;55.58;100477.31;7393322;19;1442;-41
2023/11/12 08:46:37;;;;;;;;;;;;;;;20.96;56.04;100473.72;7394355;19;1515;-42
2023/11/12 08:49:06;;;;;;;;;;;;;;;20.91;56.39;100487.63;7392763;19;1859;-42
2023/11/12 08:51:34;;;;;;;;;;;;;;;20.84;56.35;100481.19;7394180;19;1373;-42
2023/11/12 08:54:03;;;;;;;;;;;;;;;20.87;56.71;100486.25;7392622;19;1502;-41
2023/11/12 08:56:31;;;;;;;;;;;;;;;20.79;57.06;100476.28;7391249;19;1860;-42
2023/11/12 08:59:00;;;;;;;;;;;;;;;21.20;55.87;100486.50;7378662;19;1614;-41
2023/11/12 09:01:31;;;;;;;;;;;;;;;21.42;55.26;100491.34;7395223;19;1386;-41
2023/11/12 09:04:00;;;;;;;;;;;;;;;20.89;50.63;100486.94;7394040;19;1554;-41
2023/11/12 09:06:28;;;;;;;;;;;;;;;20.61;51.09;100487.03;7392621;19;1613;-41
2023/11/12 09:08:56;;;;;;;;;;;;;;;20.64;54.08;100524.31;7394533;19;1468;-41
2023/11/12 09:11:24;;;;;;;;;;;;;;;20.71;53.14;100480.72;7390146;19;1853;-41
2023/11/12 09:13:55;;;;;;;;;;;;;;;20.64;54.16;100475.94;7394732;19;1542;-41
2023/11/12 09:16:23;;;;;;;;;;;;;;;21.06;53.88;100494.13;7394277;19;1392;-41
2023/11/12 09:18:54;;;;;;;;;;;;;;;21.06;54.25;100486.06;7396210;19;1553;-41
2023/11/12 09:21:23;;;;;;;;;;;;;;;20.95;54.86;100486.31;7396345;19;1635;-41
2023/11/12 09:23:51;;;;;;;;;;;;;;;20.85;55.09;100490.94;7394911;19;1502;-40
2023/11/12 09:26:24;;;;;;;;;;;;;;;20.75;55.16;100488.34;7392800;19;1473;-41
2023/11/12 09:28:52;;;;;;;;;;;;;;;20.73;55.55;100484.94;7390910;19;1757;-41
2023/11/12 09:31:21;;;;;;;;;;;;;;;20.85;55.29;100477.50;7387944;19;2767;-40
2023/11/12 09:33:50;;;;;;;;;;;;;;;21.28;54.60;100483.03;7391948;19;1092;-41
2023/11/12 09:36:21;;;;;;;;;;;;;;;21.09;55.05;100474.16;7390319;19;1299;-41
2023/11/12 09:38:49;;;;;;;;;;;;;;;20.86;55.48;100485.38;7387131;19;1961;-41
2023/11/12 09:41:19;;;;;;;;;;;;;;;20.79;55.97;100491.53;7389538;19;1503;-41
2023/11/12 09:43:48;;;;;;;;;;;;;;;20.74;55.92;100491.16;7387205;19;1860;-40
2023/11/12 09:46:17;;;;;;;;;;;;;;;20.71;56.13;100499.53;7386624;19;1485;-41
2023/11/12 09:48:45;;;;;;;;;;;;;;;20.94;55.86;100492.69;7392487;19;1506;-41
2023/11/12 09:51:13;;;;;;;;;;;;;;;21.27;55.00;100495.66;7393226;19;1857;-41
2023/11/12 09:53:47;;;;;;;;;;;;;;;21.00;55.68;100492.06;7392857;19;1634;-41
2023/11/12 09:56:16;;;;;;;;;;;;;;;20.91;55.83;100490.31;7395012;19;1189;-41
2023/11/12 09:58:47;;;;;;;;;;;;;;;20.92;55.86;100510.81;7378708;19;1461;-40
2023/11/12 10:01:16;;;;;;;;;;;;;;;20.91;56.01;100498.38;7392208;19;1772;-41
2023/11/12 10:03:50;;;;;;;;;;;;;;;20.67;54.94;100498.97;7387308;19;1530;-40
2023/11/12 10:06:20;;;;;;;;;;;;;;;20.91;54.40;100503.75;7391142;19;1612;-41
2023/11/12 10:08:51;;;;;;;;;;;;;;;21.21;54.47;100504.34;7391517;19;1397;-41
2023/11/12 10:11:26;;;;;;;;;;;;;;;21.00;54.98;100510.88;7391333;19;1870;-41
2023/11/12 10:13:54;;;;;;;;;;;;;;;20.89;55.20;100510.28;7392867;19;1535;-41
2023/11/12 10:16:23;;;;;;;;;;;;;;;20.83;55.81;100511.72;7389805;19;1928;-41
2023/11/12 10:18:52;;;;;;;;;;;;;;;20.89;55.81;100494.13;7393186;19;1588;-41
2023/11/12 10:21:20;;;;;;;;;;;;;;;20.95;55.78;100507.81;7393515;19;1498;-41
2023/11/12 10:24:05;;;;;;;;;;;;;;;20.92;56.09;100493.84;7392470;19;1422;-41
2023/11/12 10:26:35;;;;;;;;;;;;;;;21.32;55.45;100506.75;7392450;19;1547;-40
2023/11/12 10:29:05;;;;;;;;;;;;;;;21.23;55.50;100507.72;7393229;19;1395;-41
2023/11/12 10:31:38;;;;;;;;;;;;;;;21.01;55.41;100499.13;7390861;19;1843;-40
2023/11/12 10:34:07;;;;;;;;;;;;;;;20.89;55.95;100519.19;7392604;19;1666;-40
2023/11/12 10:36:35;;;;;;;;;;;;;;;20.81;56.47;100490.41;7391583;19;1910;-40
2023/11/12 10:39:11;;;;;;;;;;;;;;;20.80;56.54;100503.97;7391302;19;1602;-41
2023/11/12 10:41:39;;;;;;;;;;;;;;;20.71;56.73;100497.69;7390758;19;1388;-40
2023/11/12 10:44:09;;;;;;;;;;;;;;;21.02;55.71;100497.28;7390908;19;1403;-40
2023/11/12 10:46:39;;;;;;;;;;;;;;;21.31;55.25;100499.72;7392699;19;1392;-40
2023/11/12 10:49:10;;;;;;;;;;;;;;;21.13;55.88;100498.88;7392273;19;1419;-40
2023/11/12 10:51:40;;;;;;;;;;;;;;;20.93;56.21;100501.75;7389846;19;1858;-40
2023/11/12 10:54:13;;;;;;;;;;;;;;;20.92;56.16;100505.44;7397316;19;1410;-40
2023/11/12 10:56:42;;;;;;;;;;;;;;;20.88;56.58;100503.22;7400305;19;1478;-40
2023/11/12 10:59:11;;;;;;;;;;;;;;;20.75;56.48;100496.38;7381276;19;2484;-41
2023/11/12 11:01:40;;;;;;;;;;;;;;;20.89;56.55;100494.13;7395472;19;1547;-41
2023/11/12 11:04:09;;;;;;;;;;;;;;;21.25;55.70;100505.72;7396998;19;1000;-40
2023/11/12 11:06:41;;;;;;;;;;;;;;;21.10;56.08;100516.16;7394941;19;1768;-40
2023/11/12 11:09:13;;;;;;;;;;;;;;;20.90;56.42;100511.97;7394307;19;1620;-41
2023/11/12 11:11:41;;;;;;;;;;;;;;;20.83;56.52;100509.91;7391748;19;1869;-40
2023/11/12 11:14:25;;;;;;;;;;;;;;;20.83;56.55;100517.09;7395197;19;1555;-40
2023/11/12 11:16:53;;;;;;;;;;;;;;;20.72;56.78;100515.50;7399505;19;1373;-40
2023/11/12 11:19:22;;;;;;;;;;;;;;;20.95;56.71;100520.41;7399305;19;1552;-40
2023/11/12 11:22:06;;;;;;;;;;;;;;;21.21;55.76;100515.09;7397235;19;2418;-40
2023/11/12 11:24:47;;;;;;;;;;;;;;;21.02;56.23;100533.06;7398762;19;1391;-40
2023/11/12 11:27:18;;;;;;;;;;;;;;;20.84;56.56;100530.38;7398083;19;1368;-40
2023/11/12 11:30:02;;;;;;;;;;;;;;;20.71;56.94;100531.75;7398237;19;1383;-40
2023/11/12 11:32:31;;;;;;;;;;;;;;;20.63;57.09;100519.97;7398092;19;1392;-41
2023/11/12 11:35:00;;;;;;;;;;;;;;;20.60;57.39;100525.63;7398364;19;1356;-40
2023/11/12 11:37:43;;;;;;;;;;;;;;;21.02;56.17;100522.31;7398499;19;1523;-40
2023/11/12 11:40:26;;;;;;;;;;;;;;;21.14;56.05;100528.31;7397582;19;1550;-40
2023/11/12 11:43:10;;;;;;;;;;;;;;;20.94;56.49;100526.78;7397837;19;1618;-40
2023/11/12 11:45:53;;;;;;;;;;;;;;;20.79;56.79;100521.97;7397785;19;1486;-40
2023/11/12 11:48:24;;;;;;;;;;;;;;;20.68;56.97;100521.34;7397708;19;1482;-40
2023/11/12 11:50:53;;;;;;;;;;;;;;;20.56;57.13;100518.00;7397079;19;1875;-40
2023/11/12 11:53:26;;;;;;;;;;;;;;;20.85;56.88;100518.66;7397963;19;1510;-40
2023/11/12 11:55:59;;;;;;;;;;;;;;;21.19;56.15;100511.72;7398006;19;1555;-40
2023/11/12 11:58:32;;;;;;;;;;;;;;;20.96;56.74;100517.56;7384195;19;1671;-40
2023/11/12 12:01:02;;;;;;;;;;;;;;;20.79;56.60;100504.97;7398964;19;1538;-40
2023/11/12 12:03:33;;;;;;;;;;;;;;;20.64;57.03;100508.19;7399493;19;1406;-40
2023/11/12 12:06:01;;;;;;;;;;;;;;;20.70;57.27;100511.28;7394742;19;1581;-40
2023/11/12 12:08:30;;;;;;;;;;;;;;;20.61;57.42;100527.31;7397161;19;1544;-40
2023/11/12 12:10:59;;;;;;;;;;;;;;;20.95;56.43;100515.03;7396841;19;1858;-40
2023/11/12 12:13:28;;;;;;;;;;;;;;;21.12;56.36;100510.66;7398483;19;1482;-40
2023/11/12 12:15:56;;;;;;;;;;;;;;;20.96;56.68;100516.72;7398466;19;1542;-40
2023/11/12 12:18:25;;;;;;;;;;;;;;;20.78;56.65;100524.78;7397942;19;1503;-50
2023/11/12 12:20:56;;;;;;;;;;;;;;;20.70;57.23;100538.16;7398374;19;1581;-40
2023/11/12 12:23:25;;;;;;;;;;;;;;;20.74;57.12;100543.06;7397385;19;1871;-40
2023/11/12 12:25:54;;;;;;;;;;;;;;;20.66;57.23;100543.81;7397553;19;1415;-40
2023/11/12 12:28:26;;;;;;;;;;;;;;;21.06;56.34;100533.63;7397683;19;1549;-40
2023/11/12 12:30:54;;;;;;;;;;;;;;;21.41;55.42;100532.72;7396423;19;1850;-41
2023/11/12 12:33:23;;;;;;;;;;;;;;;21.18;56.04;100531.53;7398298;19;1549;-40
2023/11/12 12:35:52;;;;;;;;;;;;;;;20.85;56.54;100540.16;7396885;19;1562;-40
2023/11/12 12:38:23;;;;;;;;;;;;;;;20.64;57.03;100545.81;7396616;19;1544;-40
2023/11/12 12:40:52;;;;;;;;;;;;;;;20.60;57.43;100555.16;7397154;19;1530;-40
2023/11/12 12:43:20;;;;;;;;;;;;;;;20.57;57.61;100560.84;7396596;19;1510;-40
2023/11/12 12:45:57;;;;;;;;;;;;;;;20.73;57.23;100564.69;7396738;19;1847;-40
2023/11/12 12:48:26;;;;;;;;;;;;;;;21.17;56.22;100541.44;7397074;19;1923;-40
2023/11/12 12:51:04;;;;;;;;;;;;;;;20.93;56.56;100544.78;7395832;19;1852;-40
2023/11/12 12:53:36;;;;;;;;;;;;;;;20.71;57.24;100550.56;7396374;19;1558;-41
2023/11/12 12:56:06;;;;;;;;;;;;;;;20.74;57.38;100552.97;7396831;19;1641;-40
2023/11/12 12:58:41;;;;;;;;;;;;;;;20.62;57.52;100558.56;7381625;19;1196;-40